createdAt,value
2022-11-30T00:00:33.368Z,9.43
2022-11-30T00:03:00.222Z,9.47
2022-11-30T00:05:27.338Z,9.49
2022-11-30T00:07:54.605Z,9.42
2022-11-30T00:10:22.384Z,9.36
2022-11-30T00:12:49.741Z,9.37
2022-11-30T00:15:17.469Z,9.54
2022-11-30T00:17:44.847Z,9.62
2022-11-30T00:20:13.474Z,9.58
2022-11-30T00:22:40.390Z,9.52
2022-11-30T00:25:07.940Z,9.56
2022-11-30T00:27:35.120Z,9.51
2022-11-30T00:30:01.855Z,9.54
2022-11-30T00:32:28.838Z,9.47
2022-11-30T00:34:55.670Z,9.31
2022-11-30T00:37:22.196Z,9.23
2022-11-30T00:39:49.026Z,9.12
2022-11-30T00:42:15.559Z,9.28
2022-11-30T00:44:42.109Z,9.44
2022-11-30T00:47:08.811Z,9.16
2022-11-30T00:49:35.400Z,9.12
2022-11-30T00:52:02.340Z,9.06
2022-11-30T00:54:28.944Z,9.01
2022-11-30T00:56:55.513Z,8.89
2022-11-30T00:59:22.067Z,8.85
2022-11-30T01:01:49.023Z,8.98
2022-11-30T01:04:16.094Z,9.16
2022-11-30T01:06:43.595Z,9.10
2022-11-30T01:09:10.239Z,9.05
2022-11-30T01:11:36.769Z,9.26
2022-11-30T01:14:03.354Z,9.34
2022-11-30T01:16:32.654Z,9.28
2022-11-30T01:19:00.172Z,9.17
2022-11-30T01:21:28.513Z,9.20
2022-11-30T01:23:55.560Z,9.03
2022-11-30T01:26:22.980Z,9.01
2022-11-30T01:28:51.825Z,9.09
2022-11-30T01:31:19.190Z,8.98
2022-11-30T01:33:50.828Z,8.81
2022-11-30T01:36:22.848Z,8.97
2022-11-30T01:38:53.337Z,8.89
2022-11-30T01:41:32.525Z,8.97
2022-11-30T01:44:26.287Z,9.11
2022-11-30T01:46:56.156Z,9.00
2022-11-30T01:49:54.280Z,9.00
2022-11-30T01:52:25.247Z,9.08
2022-11-30T01:54:57.374Z,8.87
2022-11-30T01:57:34.320Z,8.79
2022-11-30T02:00:03.873Z,8.87
2022-11-30T02:02:44.974Z,8.93
2022-11-30T02:05:12.872Z,9.02
2022-11-30T02:07:40.345Z,8.98
2022-11-30T02:10:07.479Z,8.95
2022-11-30T02:12:44.505Z,8.88
2022-11-30T02:15:21.285Z,8.90
2022-11-30T02:18:05.752Z,8.87
2022-11-30T02:20:48.942Z,8.86
2022-11-30T02:24:00.505Z,8.97
2022-11-30T02:26:42.864Z,8.86
2022-11-30T02:29:28.384Z,8.71
2022-11-30T02:32:03.979Z,8.70
2022-11-30T02:34:34.006Z,8.70
2022-11-30T02:37:02.020Z,8.73
2022-11-30T02:39:28.590Z,8.85
2022-11-30T02:41:55.170Z,8.85
2022-11-30T02:44:22.886Z,8.84
2022-11-30T02:46:50.978Z,8.94
2022-11-30T02:49:30.455Z,9.07
2022-11-30T02:51:58.570Z,9.05
2022-11-30T02:54:25.621Z,9.02
2022-11-30T02:56:52.180Z,8.99
2022-11-30T02:59:19.391Z,8.93
2022-11-30T03:01:46.122Z,8.77
2022-11-30T03:04:12.742Z,8.71
2022-11-30T03:06:39.702Z,8.87
2022-11-30T03:09:06.253Z,8.94
2022-11-30T03:11:33.809Z,8.86
2022-11-30T03:14:00.430Z,8.91
2022-11-30T03:16:27.047Z,8.65
2022-11-30T03:18:53.853Z,8.57
2022-11-30T03:21:20.454Z,8.60
2022-11-30T03:23:47.024Z,8.72
2022-11-30T03:26:13.583Z,8.71
2022-11-30T03:28:43.102Z,8.68
2022-11-30T03:31:13.779Z,8.70
2022-11-30T03:33:41.624Z,8.75
2022-11-30T03:36:10.900Z,8.95
2022-11-30T03:38:37.776Z,9.03
2022-11-30T03:41:11.938Z,9.09
2022-11-30T03:43:38.751Z,8.97
2022-11-30T03:46:05.489Z,8.88
2022-11-30T03:48:32.366Z,9.05
2022-11-30T03:50:58.945Z,9.06
2022-11-30T03:53:25.888Z,8.99
2022-11-30T03:55:54.955Z,8.84
2022-11-30T03:58:23.296Z,8.79
2022-11-30T04:00:50.466Z,8.60
2022-11-30T04:03:17.135Z,8.53
2022-11-30T04:05:43.715Z,8.52
2022-11-30T04:08:10.250Z,8.48
2022-11-30T04:10:37.100Z,8.63
2022-11-30T04:13:03.662Z,8.67
2022-11-30T04:15:30.526Z,8.73
2022-11-30T04:17:57.087Z,8.63
2022-11-30T04:20:23.668Z,8.65
2022-11-30T04:22:50.367Z,8.73
2022-11-30T04:25:17.015Z,8.54
2022-11-30T04:27:47.050Z,8.67
2022-11-30T04:30:14.403Z,8.64
2022-11-30T04:32:40.946Z,8.65
2022-11-30T04:35:08.281Z,8.81
2022-11-30T04:37:34.880Z,8.79
2022-11-30T04:40:01.585Z,8.81
2022-11-30T04:42:28.434Z,8.83
2022-11-30T04:44:54.999Z,8.79
2022-11-30T04:47:21.558Z,8.83
2022-11-30T04:49:48.170Z,8.81
2022-11-30T04:52:15.867Z,8.88
2022-11-30T04:54:42.921Z,9.02
2022-11-30T04:57:09.483Z,9.00
2022-11-30T04:59:37.011Z,8.81
2022-11-30T05:02:03.737Z,8.86
2022-11-30T05:04:30.580Z,8.75
2022-11-30T05:06:57.422Z,8.82
2022-11-30T05:09:24.717Z,8.81
2022-11-30T05:11:51.748Z,8.78
2022-11-30T05:14:18.345Z,8.78
2022-11-30T05:16:48.151Z,8.78
2022-11-30T05:19:14.980Z,8.83
2022-11-30T05:21:45.575Z,8.79
2022-11-30T05:24:12.852Z,8.86
2022-11-30T05:26:39.516Z,8.57
2022-11-30T05:29:06.792Z,8.60
2022-11-30T05:31:33.691Z,8.60
2022-11-30T05:34:00.249Z,8.75
2022-11-30T05:36:26.816Z,8.74
2022-11-30T05:38:53.378Z,8.83
2022-11-30T05:41:19.874Z,8.75
2022-11-30T05:43:46.798Z,8.73
2022-11-30T05:46:13.661Z,8.57
2022-11-30T05:48:40.556Z,8.45
2022-11-30T05:51:17.753Z,8.44
2022-11-30T05:53:45.578Z,8.52
2022-11-30T05:56:17.342Z,8.68
2022-11-30T05:58:44.792Z,8.68
2022-11-30T06:01:22.614Z,8.55
2022-11-30T06:03:49.615Z,8.56
2022-11-30T06:06:16.195Z,8.54
2022-11-30T06:08:44.724Z,8.51
2022-11-30T06:11:11.460Z,8.46
2022-11-30T06:13:39.847Z,8.59
2022-11-30T06:16:07.310Z,8.51
2022-11-30T06:18:34.729Z,8.46
2022-11-30T06:21:08.103Z,8.39
2022-11-30T06:23:34.790Z,8.48
2022-11-30T06:26:11.753Z,8.38
2022-11-30T06:28:40.585Z,8.40
2022-11-30T06:31:08.931Z,8.41
2022-11-30T06:33:35.782Z,8.45
2022-11-30T06:36:03.504Z,8.60
2022-11-30T06:38:30.425Z,8.63
2022-11-30T06:41:07.652Z,8.50
2022-11-30T06:43:38.560Z,8.41
2022-11-30T06:46:07.038Z,8.33
2022-11-30T06:48:34.744Z,8.48
2022-11-30T06:51:04.455Z,8.63
2022-11-30T06:53:31.757Z,8.47
2022-11-30T06:55:58.334Z,8.53
2022-11-30T06:58:24.921Z,8.51
2022-11-30T07:00:51.448Z,8.48
2022-11-30T07:03:18.093Z,8.47
2022-11-30T07:05:46.139Z,8.60
2022-11-30T07:08:14.912Z,8.72
2022-11-30T07:10:43.236Z,8.74
2022-11-30T07:13:11.935Z,8.86
2022-11-30T07:15:42.320Z,9.01
2022-11-30T07:18:09.856Z,8.85
2022-11-30T07:20:37.965Z,8.85
2022-11-30T07:23:23.844Z,8.86
2022-11-30T07:26:08.094Z,8.87
2022-11-30T07:28:50.191Z,8.81
2022-11-30T07:31:31.626Z,8.85
2022-11-30T07:34:02.645Z,8.94
2022-11-30T07:36:31.453Z,8.80
2022-11-30T07:38:58.273Z,8.87
2022-11-30T07:41:25.540Z,8.72
2022-11-30T07:43:52.182Z,8.83
2022-11-30T07:46:19.125Z,8.69
2022-11-30T07:48:46.472Z,8.71
2022-11-30T07:51:18.935Z,8.93
2022-11-30T07:53:45.752Z,8.71
2022-11-30T07:56:14.766Z,8.81
2022-11-30T07:58:42.207Z,8.73
2022-11-30T08:01:14.777Z,8.80
2022-11-30T08:03:41.913Z,8.80
2022-11-30T08:06:11.511Z,8.91
2022-11-30T08:08:41.112Z,9.02
2022-11-30T08:11:10.318Z,8.87
2022-11-30T08:13:36.974Z,8.73
2022-11-30T08:16:08.469Z,8.79
2022-11-30T08:18:35.813Z,8.72
2022-11-30T08:21:04.687Z,8.73
2022-11-30T08:23:34.111Z,8.70
2022-11-30T08:26:06.644Z,8.75
2022-11-30T08:28:35.972Z,8.69
2022-11-30T08:31:05.373Z,8.76
2022-11-30T08:33:32.797Z,8.64
2022-11-30T08:36:16.169Z,8.62
2022-11-30T08:38:44.507Z,8.60
2022-11-30T08:41:15.043Z,8.63
2022-11-30T08:43:42.197Z,8.77
2022-11-30T08:54:31.399Z,8.76
2022-11-30T08:56:59.076Z,8.81
2022-11-30T08:59:25.915Z,8.87
2022-11-30T09:01:52.429Z,8.94
2022-11-30T09:04:19.003Z,8.78
2022-11-30T09:06:45.570Z,8.69
2022-11-30T09:09:12.128Z,8.62
2022-11-30T09:11:38.741Z,8.67
2022-11-30T09:14:05.465Z,8.66
2022-11-30T09:16:32.098Z,8.56
2022-11-30T09:18:58.704Z,8.65
2022-11-30T09:21:26.896Z,8.68
2022-11-30T09:23:56.155Z,8.77
2022-11-30T09:26:25.058Z,8.84
2022-11-30T09:28:52.856Z,8.88
2022-11-30T09:31:24.720Z,8.98
2022-11-30T09:33:52.252Z,9.03
2022-11-30T09:36:21.974Z,8.85
2022-11-30T09:38:48.739Z,8.69
2022-11-30T09:41:45.935Z,8.72
2022-11-30T09:44:28.610Z,8.65
2022-11-30T09:47:01.549Z,8.77
2022-11-30T09:49:44.134Z,8.81
2022-11-30T09:52:18.186Z,8.70
2022-11-30T09:54:47.855Z,8.83
2022-11-30T09:57:44.983Z,8.85
2022-11-30T10:00:21.642Z,8.70
2022-11-30T10:02:53.834Z,8.66
2022-11-30T10:05:58.276Z,8.59
2022-11-30T10:08:53.164Z,8.73
2022-11-30T10:11:50.805Z,8.72
2022-11-30T10:14:26.059Z,8.60
2022-11-30T10:16:55.540Z,8.55
2022-11-30T10:19:46.853Z,8.42
2022-11-30T10:22:31.196Z,8.48
2022-11-30T10:25:17.134Z,8.40
2022-11-30T10:28:17.774Z,8.58
2022-11-30T10:30:48.913Z,8.70
2022-11-30T10:33:19.014Z,8.78
2022-11-30T10:36:00.475Z,8.77
2022-11-30T10:38:36.625Z,8.91
2022-11-30T10:41:20.351Z,8.98
2022-11-30T10:43:57.180Z,8.79
2022-11-30T10:46:30.890Z,8.94
2022-11-30T10:49:12.580Z,9.00
2022-11-30T10:51:42.805Z,9.02
2022-11-30T10:54:18.984Z,8.84
2022-11-30T10:56:46.553Z,8.78
2022-11-30T10:59:40.526Z,8.70
2022-11-30T11:02:35.497Z,8.63
2022-11-30T11:05:09.485Z,8.94
2022-11-30T11:08:06.562Z,8.85
2022-11-30T11:10:37.161Z,8.94
2022-11-30T11:13:05.234Z,8.96
2022-11-30T11:15:34.044Z,8.83
2022-11-30T11:18:16.030Z,9.00
2022-11-30T11:20:43.513Z,8.93
2022-11-30T11:23:22.860Z,8.97
2022-11-30T11:25:53.152Z,9.10
2022-11-30T11:28:24.298Z,9.03
2022-11-30T11:30:55.950Z,9.03
2022-11-30T11:33:28.208Z,8.95
2022-11-30T11:36:16.779Z,9.03
2022-11-30T11:38:48.285Z,8.99
2022-11-30T11:41:20.836Z,8.91
2022-11-30T11:44:01.584Z,8.92
2022-11-30T11:46:30.030Z,8.90
2022-11-30T11:49:01.369Z,9.00
2022-11-30T11:51:39.728Z,9.02
2022-11-30T11:54:30.642Z,9.10
2022-11-30T11:56:58.710Z,8.92
2022-11-30T11:59:43.972Z,8.95
2022-11-30T12:02:32.047Z,8.97
2022-11-30T12:05:24.493Z,8.95
2022-11-30T12:08:15.954Z,8.75
2022-11-30T12:11:00.811Z,8.85
2022-11-30T12:13:38.398Z,8.81
2022-11-30T12:16:10.395Z,8.95
2022-11-30T12:19:00.122Z,8.93
2022-11-30T12:21:32.967Z,8.84
2022-11-30T12:24:19.770Z,8.91
2022-11-30T12:26:53.517Z,8.98
2022-11-30T12:29:39.105Z,9.06
2022-11-30T12:32:31.783Z,8.96
2022-11-30T12:35:29.232Z,8.90
2022-11-30T12:38:01.904Z,9.02
2022-11-30T12:40:43.887Z,8.87
2022-11-30T12:44:00.603Z,9.04
2022-11-30T12:46:45.640Z,9.09
2022-11-30T12:49:18.002Z,8.99
2022-11-30T12:51:59.039Z,8.93
2022-11-30T12:54:45.197Z,9.03
2022-11-30T12:57:18.791Z,9.04
2022-11-30T13:00:09.165Z,9.12
2022-11-30T13:02:38.439Z,9.18
2022-11-30T13:05:12.653Z,9.14
2022-11-30T13:07:57.041Z,9.43
2022-11-30T13:10:23.591Z,9.30
2022-11-30T13:12:54.210Z,9.15
2022-11-30T13:15:25.591Z,9.02
2022-11-30T13:17:53.717Z,8.99
2022-11-30T13:20:36.620Z,8.93
2022-11-30T13:23:28.583Z,8.97
2022-11-30T13:26:08.891Z,8.92
2022-11-30T13:28:41.649Z,9.00
2022-11-30T13:31:21.245Z,9.01
2022-11-30T13:33:53.750Z,9.00
2022-11-30T13:36:38.918Z,9.02
2022-11-30T13:39:14.865Z,9.08
2022-11-30T13:41:44.539Z,9.04
2022-11-30T13:44:32.519Z,8.94
2022-11-30T13:47:06.034Z,9.01
2022-11-30T13:49:35.715Z,9.05
2022-11-30T13:54:57.086Z,8.94
2022-11-30T13:57:30.038Z,8.92
2022-11-30T14:00:01.873Z,8.78
2022-11-30T14:02:31.962Z,8.69
2022-11-30T14:05:16.999Z,8.75
2022-11-30T14:07:45.749Z,8.70
2022-11-30T14:10:41.801Z,8.86
2022-11-30T14:13:11.211Z,8.74
2022-11-30T14:15:41.831Z,8.58
2022-11-30T14:18:08.279Z,8.55
2022-11-30T14:20:58.399Z,8.66
2022-11-30T14:23:55.567Z,8.64
2022-11-30T14:26:39.090Z,8.54
2022-11-30T14:29:08.786Z,8.60
2022-11-30T14:32:12.554Z,8.51
2022-11-30T14:34:43.833Z,8.51
2022-11-30T14:37:18.679Z,8.53
2022-11-30T14:39:46.622Z,8.65
2022-11-30T14:42:45.985Z,8.65
2022-11-30T14:46:00.261Z,8.85
2022-11-30T14:48:31.167Z,8.81
2022-11-30T14:51:03.758Z,8.72
2022-11-30T14:53:47.000Z,8.84
2022-11-30T14:56:47.884Z,8.91
2022-11-30T14:59:48.827Z,8.81
2022-11-30T15:02:34.280Z,8.81
2022-11-30T15:05:01.724Z,8.84
2022-11-30T15:07:29.746Z,8.81
2022-11-30T15:10:04.121Z,8.91
2022-11-30T15:12:31.920Z,8.77
2022-11-30T15:15:03.673Z,8.70
2022-11-30T15:17:30.538Z,8.79
2022-11-30T15:19:57.131Z,8.67
2022-11-30T15:22:24.631Z,8.83
2022-11-30T15:24:51.206Z,8.61
2022-11-30T15:27:23.678Z,8.54
2022-11-30T15:29:59.147Z,8.78
2022-11-30T15:32:26.768Z,8.72
2022-11-30T15:34:58.857Z,8.69
2022-11-30T15:37:30.408Z,8.80
2022-11-30T15:39:59.512Z,8.75
2022-11-30T15:42:41.887Z,8.70
2022-11-30T15:45:29.322Z,8.72
2022-11-30T15:47:58.142Z,8.76
2022-11-30T15:50:30.790Z,8.85
2022-11-30T15:53:03.097Z,8.90
2022-11-30T15:55:43.073Z,8.73
2022-11-30T15:58:37.858Z,8.68
2022-11-30T16:01:21.987Z,8.67
2022-11-30T16:03:54.745Z,8.73
2022-11-30T16:06:23.518Z,8.66
2022-11-30T16:08:51.130Z,8.66
2022-11-30T16:11:19.599Z,8.58
2022-11-30T16:13:47.267Z,8.56
2022-11-30T16:16:21.980Z,8.54
2022-11-30T16:18:48.836Z,8.44
2022-11-30T16:21:18.616Z,8.15
2022-11-30T16:23:46.682Z,8.15
2022-11-30T16:26:43.237Z,8.11
2022-11-30T16:29:04.405Z,8.42
2022-11-30T16:31:31.104Z,8.50
2022-11-30T16:33:57.722Z,8.61
2022-11-30T16:36:24.266Z,8.43
2022-11-30T16:38:52.209Z,8.39
2022-11-30T16:41:27.021Z,8.38
2022-11-30T16:43:57.537Z,8.41
2022-11-30T16:46:27.038Z,8.45
2022-11-30T16:48:54.327Z,8.42
2022-11-30T16:51:27.443Z,8.53
2022-11-30T16:53:54.466Z,8.29
2022-11-30T16:56:21.764Z,8.22
2022-11-30T16:58:48.449Z,8.24
2022-11-30T17:01:27.924Z,8.11
2022-11-30T17:03:57.030Z,7.94
2022-11-30T17:06:24.369Z,8.02
2022-11-30T17:08:50.971Z,8.13
2022-11-30T17:11:27.646Z,8.16
2022-11-30T17:13:54.216Z,8.27
2022-11-30T17:16:20.980Z,8.15
2022-11-30T17:18:47.551Z,8.16
2022-11-30T17:21:16.724Z,8.22
2022-11-30T17:23:44.464Z,8.16
2022-11-30T17:26:12.771Z,8.21
2022-11-30T17:28:41.497Z,8.30
2022-11-30T17:31:09.060Z,8.19
2022-11-30T17:33:36.785Z,8.22
2022-11-30T17:36:05.853Z,8.25
2022-11-30T17:38:34.463Z,8.29
2022-11-30T17:41:18.311Z,8.23
2022-11-30T17:43:45.738Z,8.28
2022-11-30T17:46:15.520Z,8.36
2022-11-30T17:48:43.274Z,8.41
2022-11-30T17:51:10.381Z,8.45
2022-11-30T17:53:38.494Z,8.37
2022-11-30T17:56:10.511Z,8.36
2022-11-30T17:58:42.969Z,8.37
2022-11-30T18:01:25.252Z,8.36
2022-11-30T18:03:53.270Z,8.28
2022-11-30T18:06:20.216Z,8.31
2022-11-30T18:08:47.114Z,8.41
2022-11-30T18:11:20.118Z,8.44
2022-11-30T18:13:48.133Z,8.22
2022-11-30T18:16:21.842Z,8.27
2022-11-30T18:18:49.151Z,8.25
2022-11-30T18:21:18.813Z,8.32
2022-11-30T18:23:46.380Z,8.43
2022-11-30T18:26:16.617Z,8.39
2022-11-30T18:28:44.415Z,8.35
2022-11-30T18:31:11.361Z,8.39
2022-11-30T18:33:38.424Z,8.47
2022-11-30T18:36:08.347Z,8.47
2022-11-30T18:38:38.269Z,8.30
2022-11-30T18:41:06.228Z,8.32
2022-11-30T18:43:33.703Z,8.36
2022-11-30T18:46:09.047Z,8.30
2022-11-30T18:48:36.391Z,8.37
2022-11-30T18:51:11.565Z,8.54
2022-11-30T18:53:38.261Z,8.39
2022-11-30T18:56:16.095Z,8.47
2022-11-30T18:58:43.504Z,8.55
2022-11-30T19:01:12.906Z,8.42
2022-11-30T19:03:39.925Z,8.35
2022-11-30T19:06:08.469Z,8.30
2022-11-30T19:08:35.921Z,8.23
2022-11-30T19:11:05.436Z,8.20
2022-11-30T19:13:33.199Z,8.21
2022-11-30T19:16:04.824Z,8.24
2022-11-30T19:18:31.889Z,8.18
2022-11-30T19:20:58.956Z,8.38
2022-11-30T19:23:26.484Z,8.42
2022-11-30T19:25:53.082Z,8.50
2022-11-30T19:28:19.741Z,8.42
2022-11-30T19:30:46.414Z,8.32
2022-11-30T19:33:14.088Z,8.42
2022-11-30T19:35:40.938Z,8.40
2022-11-30T19:38:07.530Z,8.36
2022-11-30T19:40:34.039Z,8.28
2022-11-30T19:43:00.650Z,8.46
2022-11-30T19:45:27.168Z,8.40
2022-11-30T19:47:53.710Z,8.43
2022-11-30T19:50:22.096Z,8.33
2022-11-30T19:52:49.426Z,8.42
2022-11-30T19:55:16.153Z,8.30
2022-11-30T19:57:42.830Z,8.28
2022-11-30T20:00:09.973Z,8.32
2022-11-30T20:02:42.361Z,8.36
2022-11-30T20:05:09.331Z,8.42
2022-11-30T20:07:36.384Z,8.32
2022-11-30T20:10:03.752Z,8.39
2022-11-30T20:12:30.307Z,8.39
2022-11-30T20:14:57.370Z,8.42
2022-11-30T20:17:23.972Z,8.35
2022-11-30T20:19:50.571Z,8.32
2022-11-30T20:22:17.187Z,8.39
2022-11-30T20:24:43.813Z,8.29
2022-11-30T20:27:10.331Z,8.32
2022-11-30T20:29:36.859Z,8.39
2022-11-30T20:32:03.407Z,8.13
2022-11-30T20:34:34.352Z,8.26
2022-11-30T20:37:02.602Z,7.98
2022-11-30T20:39:29.186Z,7.96
2022-11-30T20:41:55.957Z,8.12
2022-11-30T20:44:22.470Z,8.18
2022-11-30T20:46:49.218Z,8.06
2022-11-30T20:49:18.111Z,8.10
2022-11-30T20:51:45.566Z,8.20
2022-11-30T20:54:12.752Z,8.19
2022-11-30T20:56:40.522Z,8.17
2022-11-30T20:59:12.834Z,8.21
2022-11-30T21:01:44.963Z,8.22
2022-11-30T21:04:12.104Z,8.14
2022-11-30T21:06:39.218Z,8.16
2022-11-30T21:09:05.793Z,8.15
2022-11-30T21:11:32.299Z,8.10
2022-11-30T21:13:58.993Z,8.07
2022-11-30T21:16:28.929Z,7.97
2022-11-30T21:18:58.558Z,8.06
2022-11-30T21:21:28.580Z,7.90
2022-11-30T21:23:58.369Z,7.93
2022-11-30T21:26:28.170Z,8.00
2022-11-30T21:28:58.669Z,7.97
2022-11-30T21:31:25.349Z,8.12
2022-11-30T21:33:53.473Z,8.25
2022-11-30T21:36:21.844Z,8.28
2022-11-30T21:38:53.734Z,8.32
2022-11-30T21:41:20.412Z,8.23
2022-11-30T21:43:47.063Z,8.08
2022-11-30T21:46:15.861Z,8.18
2022-11-30T21:48:44.181Z,8.01
2022-11-30T21:51:31.501Z,7.92
2022-11-30T21:54:01.030Z,7.96
2022-11-30T21:56:30.973Z,8.05
2022-11-30T21:58:58.129Z,8.06
2022-11-30T22:01:34.105Z,8.10
2022-11-30T22:04:03.216Z,8.11
2022-11-30T22:06:31.544Z,8.01
2022-11-30T22:09:03.246Z,7.95
2022-11-30T22:11:30.771Z,7.98
2022-11-30T22:13:57.310Z,7.93
2022-11-30T22:16:25.855Z,7.94
2022-11-30T22:18:55.680Z,7.93
2022-11-30T22:21:24.364Z,7.97
2022-11-30T22:24:01.948Z,7.99
2022-11-30T22:26:31.194Z,7.67
2022-11-30T22:29:03.487Z,7.82
2022-11-30T22:31:34.000Z,7.80
2022-11-30T22:34:00.854Z,7.78
2022-11-30T22:36:29.873Z,7.57
2022-11-30T22:39:05.409Z,7.79
2022-11-30T22:41:32.655Z,7.72
2022-11-30T22:43:59.593Z,7.97
2022-11-30T22:46:29.021Z,7.97
2022-11-30T22:48:58.833Z,7.96
2022-11-30T22:51:27.662Z,7.97
2022-11-30T22:53:55.010Z,7.99
2022-11-30T22:56:23.710Z,7.96
2022-11-30T22:58:53.909Z,7.86
2022-11-30T23:01:30.164Z,7.71
2022-11-30T23:04:01.931Z,7.85
2022-11-30T23:06:28.898Z,7.73
2022-11-30T23:08:55.437Z,7.76
2022-11-30T23:11:25.065Z,7.84
2022-11-30T23:13:52.744Z,7.79
2022-11-30T23:16:20.393Z,7.89
2022-11-30T23:18:48.428Z,7.93
2022-11-30T23:21:20.577Z,7.82
2022-11-30T23:23:47.993Z,7.88
2022-11-30T23:26:24.219Z,7.90
2022-11-30T23:28:52.729Z,8.02
2022-11-30T23:31:33.763Z,8.03
2022-11-30T23:34:04.256Z,8.05
2022-11-30T23:36:30.882Z,7.90
2022-11-30T23:38:59.677Z,7.95
2022-11-30T23:41:26.692Z,7.97
2022-11-30T23:43:53.860Z,7.83
2022-11-30T23:46:20.889Z,7.97
2022-11-30T23:48:47.892Z,7.90
2022-11-30T23:51:14.411Z,7.97
2022-11-30T23:53:40.943Z,7.83
2022-11-30T23:56:11.792Z,7.95
2022-11-30T23:58:39.527Z,7.85
